Time;durP1;ratioP1;P1;durP2;ratioP2;P2;SDS_P1;SDS_P2;PMS_P1;PMS_P2;Temp;Humidity;BMP_temperature;BMP_pressure;BME280_temperature;BME280_humidity;BME280_pressure;Samples;Min_cycle;Max_cycle;Signal;HPM_P1;HPM_P2
2022/12/13 00:00:01;;;;;;;;;31.75;25.50;;;;;-0.45;72.31;101271.00;5070130;28;11555;-65
2022/12/13 00:02:27;;;;;;;;;33.00;27.75;;;;;-0.44;72.83;101278.00;5070103;28;11581;-66
2022/12/13 00:04:54;;;;;;;;;33.75;28.50;;;;;-0.46;72.68;101277.25;5068393;28;11730;-66
2022/12/13 00:07:20;;;;;;;;;24.50;24.00;;;;;-0.46;72.45;101269.31;5069507;28;11562;-66
2022/12/13 00:09:47;;;;;;;;;21.75;21.75;;;;;-0.45;72.84;101262.22;5069339;28;11591;-65
2022/12/13 00:12:13;;;;;;;;;27.50;22.50;;;;;-0.44;72.55;101264.78;5069543;28;11562;-64
2022/12/13 00:14:39;;;;;;;;;31.00;27.00;;;;;-0.44;72.84;101262.13;5069134;28;11570;-67
2022/12/13 00:17:06;;;;;;;;;26.50;20.00;;;;;-0.46;72.24;101260.56;5069693;28;11575;-67
2022/12/13 00:19:32;;;;;;;;;25.50;21.25;;;;;-0.47;72.42;101264.16;5069114;28;11596;-65
2022/12/13 00:21:59;;;;;;;;;28.00;25.25;;;;;-0.48;72.28;101258.03;5068893;28;11675;-64
2022/12/13 00:24:25;;;;;;;;;26.00;23.00;;;;;-0.47;72.69;101259.72;5069438;28;11577;-66
2022/12/13 00:26:54;;;;;;;;;29.50;26.50;;;;;-0.48;72.21;101255.38;5070192;28;11664;-66
2022/12/13 00:29:21;;;;;;;;;24.50;22.00;;;;;-0.47;72.31;101256.22;5052033;28;11575;-65
2022/12/13 00:31:47;;;;;;;;;26.25;21.25;;;;;-0.49;72.25;101256.31;5071013;28;11563;-64
2022/12/13 00:34:25;;;;;;;;;31.00;27.00;;;;;-0.48;72.64;101257.19;5062507;28;11565;-64
2022/12/13 00:36:53;;;;;;;;;26.75;24.75;;;;;-0.48;72.25;101249.25;5072782;28;11589;-64
2022/12/13 00:39:20;;;;;;;;;21.75;18.50;;;;;-0.45;72.41;101254.28;5073147;28;11583;-65
2022/12/13 00:41:47;;;;;;;;;23.75;22.75;;;;;-0.47;72.48;101254.41;5073878;28;11646;-64
2022/12/13 00:44:14;;;;;;;;;26.00;23.50;;;;;-0.46;72.86;101256.09;5073726;28;11690;-64
2022/12/13 00:46:41;;;;;;;;;24.00;22.50;;;;;-0.46;72.51;101250.81;5073745;28;11576;-62
2022/12/13 00:49:10;;;;;;;;;26.00;21.75;;;;;-0.47;72.20;101235.91;5073851;28;11557;-65
2022/12/13 00:51:36;;;;;;;;;27.50;25.00;;;;;-0.49;72.71;101245.75;5072579;28;11537;-65
2022/12/13 00:54:04;;;;;;;;;19.25;19.00;;;;;-0.49;72.74;101229.88;5073066;28;11582;-66
2022/12/13 00:56:32;;;;;;;;;25.25;20.75;;;;;-0.47;72.90;101248.28;5074031;28;11545;-67
2022/12/13 00:58:59;;;;;;;;;30.75;22.25;;;;;-0.46;72.14;101242.03;5074135;28;11598;-66
2022/12/13 01:01:28;;;;;;;;;30.00;24.25;;;;;-0.48;72.33;101236.03;5073857;28;11565;-65
2022/12/13 01:03:57;;;;;;;;;22.50;21.50;;;;;-0.48;72.69;101236.03;5073869;28;11680;-65
2022/12/13 01:06:28;;;;;;;;;23.00;21.00;;;;;-0.51;72.24;101243.22;5072513;28;11611;-65
2022/12/13 01:08:54;;;;;;;;;25.75;23.50;;;;;-0.52;72.49;101241.53;5072059;28;11554;-65
2022/12/13 01:11:21;;;;;;;;;22.25;18.00;;;;;-0.55;72.25;101228.53;5072680;28;11605;-65
2022/12/13 01:13:47;;;;;;;;;26.50;24.50;;;;;-0.57;72.18;101235.75;5088408;28;12297;-65
2022/12/13 01:16:14;;;;;;;;;22.00;20.50;;;;;-0.56;72.62;101232.16;5072138;28;12319;-65
2022/12/13 01:18:41;;;;;;;;;27.50;27.50;;;;;-0.57;72.07;101235.75;5054969;28;11659;-63
2022/12/13 01:21:13;;;;;;;;;31.25;25.00;;;;;-0.58;72.17;101238.50;5071508;28;11554;-65
2022/12/13 01:23:41;;;;;;;;;25.00;24.00;;;;;-0.63;72.04;101235.34;5072557;28;11586;-65
2022/12/13 01:26:12;;;;;;;;;19.50;19.00;;;;;-0.66;72.14;101232.94;5072403;28;11562;-65
2022/12/13 01:28:39;;;;;;;;;21.00;21.00;;;;;-0.66;72.45;101230.28;5072663;28;11580;-65
2022/12/13 01:31:09;;;;;;;;;23.75;19.00;;;;;-0.67;72.21;101228.59;5072218;28;11607;-65
2022/12/13 01:33:36;;;;;;;;;21.50;20.00;;;;;-0.65;72.69;101229.31;5072069;28;12704;-65
2022/12/13 01:36:05;;;;;;;;;26.00;24.50;;;;;-0.66;72.42;101236.41;5072077;28;12341;-64
2022/12/13 01:38:33;;;;;;;;;23.50;23.00;;;;;-0.68;72.40;101237.50;5072109;28;11717;-65
2022/12/13 01:41:04;;;;;;;;;20.25;19.00;;;;;-0.70;72.17;101239.41;5072142;28;11547;-66
2022/12/13 01:43:43;;;;;;;;;26.75;24.50;;;;;-0.72;72.10;101233.38;5071605;28;12282;-66
2022/12/13 01:46:10;;;;;;;;;24.75;22.00;;;;;-0.74;72.69;101230.84;5071734;28;11750;-65
2022/12/13 01:48:43;;;;;;;;;28.00;25.50;;;;;-0.74;71.85;101230.84;5071098;28;11562;-65
2022/12/13 01:51:14;;;;;;;;;28.75;24.00;;;;;-0.75;72.44;101231.81;5071847;28;11567;-66
2022/12/13 01:53:44;;;;;;;;;24.25;21.75;;;;;-0.77;72.34;101231.94;5071910;28;11587;-65
2022/12/13 01:56:18;;;;;;;;;26.25;15.75;;;;;-0.82;72.11;101239.31;5071585;28;11552;-65
2022/12/13 01:58:48;;;;;;;;;25.75;21.25;;;;;-0.84;72.43;101241.25;5071714;28;11575;-66
2022/12/13 02:01:16;;;;;;;;;26.50;22.00;;;;;-0.88;72.47;101238.94;5074031;28;11716;-63
2022/12/13 02:03:43;;;;;;;;;25.50;24.00;;;;;-0.89;72.34;101238.09;5075923;28;11626;-64
2022/12/13 02:06:22;;;;;;;;;23.00;19.75;;;;;-0.91;72.18;101232.06;5073004;28;12284;-65
2022/12/13 02:08:48;;;;;;;;;22.00;19.00;;;;;-0.93;72.33;101228.72;5072048;28;12260;-63
2022/12/13 02:11:14;;;;;;;;;28.75;26.50;;;;;-0.97;72.09;101223.72;5070606;28;11590;-65
2022/12/13 02:13:41;;;;;;;;;26.75;23.25;;;;;-0.97;72.24;101229.00;5071176;28;11608;-64
2022/12/13 02:16:18;;;;;;;;;29.75;23.25;;;;;-0.98;72.67;101228.16;5071028;28;11562;-65
2022/12/13 02:19:06;;;;;;;;;22.25;22.25;;;;;-1.00;72.19;101222.16;5070604;28;12278;-65
2022/12/13 02:22:03;;;;;;;;;22.00;20.50;;;;;-1.02;72.70;101224.91;5070408;28;11576;-63
2022/12/13 02:24:57;;;;;;;;;31.00;24.25;;;;;-1.04;72.57;101225.97;5070824;28;11583;-65
2022/12/13 02:27:41;;;;;;;;;24.50;23.00;;;;;-1.08;71.96;101228.00;5070996;28;11576;-61
2022/12/13 02:30:23;;;;;;;;;31.75;22.00;;;;;-1.10;72.83;101229.03;5070878;28;11551;-65
2022/12/13 02:32:56;;;;;;;;;29.75;24.50;;;;;-1.13;71.99;101232.78;5070940;28;11586;-65
2022/12/13 02:35:52;;;;;;;;;27.75;18.25;;;;;-1.12;72.83;101231.81;5070519;28;11694;-63
2022/12/13 02:38:43;;;;;;;;;22.00;22.00;;;;;-1.12;72.40;101233.63;5043736;28;11588;-63
2022/12/13 02:41:37;;;;;;;;;25.00;21.75;;;;;-1.16;72.29;101222.41;5066336;28;11616;-66
2022/12/13 02:44:28;;;;;;;;;25.25;22.75;;;;;-1.20;72.39;101223.59;5064260;28;11571;-65
2022/12/13 02:47:00;;;;;;;;;33.00;24.50;;;;;-1.21;72.27;101221.91;5072405;28;11581;-64
2022/12/13 02:49:30;;;;;;;;;24.75;22.50;;;;;-1.25;72.84;101226.56;5070378;28;11568;-64
2022/12/13 02:51:59;;;;;;;;;31.50;27.50;;;;;-1.27;72.22;101222.31;5051519;28;11584;-65
2022/12/13 02:54:25;;;;;;;;;28.00;24.25;;;;;-1.29;72.43;101214.53;5051017;28;11595;-65
2022/12/13 02:56:57;;;;;;;;;36.75;32.50;;;;;-1.30;72.31;101219.91;5071145;28;11547;-66
2022/12/13 02:59:35;;;;;;;;;31.50;26.50;;;;;-1.29;73.15;101213.69;5070527;28;11684;-65
2022/12/13 03:02:17;;;;;;;;;29.75;25.75;;;;;-1.29;72.57;101208.41;5051161;28;11652;-65
2022/12/13 03:08:25;;;;;;;;;27.75;25.25;;;;;-1.35;72.86;101212.31;5070743;28;11594;-66
2022/12/13 03:11:13;;;;;;;;;30.75;24.50;;;;;-1.35;72.66;101208.81;5070481;28;11639;-64
2022/12/13 03:13:48;;;;;;;;;37.00;34.50;;;;;-1.36;72.54;101209.78;5070647;28;11576;-64
2022/12/13 03:16:43;;;;;;;;;19.00;18.00;;;;;-1.39;73.27;101204.72;5070057;28;11594;-65
2022/12/13 03:19:12;;;;;;;;;25.00;21.25;;;;;-1.41;73.20;101206.63;5070154;28;11719;-66
2022/12/13 03:21:46;;;;;;;;;32.75;25.25;;;;;-1.43;72.65;101206.72;5068991;28;11577;-65
2022/12/13 03:24:18;;;;;;;;;34.25;27.75;;;;;-1.45;72.70;101206.00;5070175;28;11559;-65
2022/12/13 03:26:47;;;;;;;;;32.25;29.75;;;;;-1.45;72.85;101208.63;5070438;28;11570;-65
2022/12/13 03:29:14;;;;;;;;;33.50;30.00;;;;;-1.45;73.28;101202.50;5070231;28;11578;-66
2022/12/13 03:31:51;;;;;;;;;28.50;24.50;;;;;-1.44;73.16;101193.63;5069151;28;11693;-65
2022/12/13 03:34:17;;;;;;;;;25.50;25.25;;;;;-1.41;73.27;101201.34;5069783;28;12711;-66
2022/12/13 03:36:50;;;;;;;;;27.50;26.50;;;;;-1.42;72.95;101202.28;5056354;28;11562;-64
2022/12/13 03:39:17;;;;;;;;;31.25;26.50;;;;;-1.43;72.50;101205.88;5069954;28;11644;-65
2022/12/13 03:41:43;;;;;;;;;34.25;27.75;;;;;-1.44;72.54;101201.56;5069795;28;11577;-64
2022/12/13 03:44:09;;;;;;;;;30.00;28.25;;;;;-1.45;73.20;101199.88;5069643;28;12398;-65
2022/12/13 03:46:36;;;;;;;;;31.00;21.75;;;;;-1.49;72.94;101201.88;5069893;28;11670;-64
2022/12/13 03:49:02;;;;;;;;;30.75;25.50;;;;;-1.48;72.47;101208.00;5069985;28;11578;-65
2022/12/13 03:51:29;;;;;;;;;27.50;25.00;;;;;-1.48;73.31;101203.56;5068638;28;11590;-65
2022/12/13 03:53:55;;;;;;;;;38.50;29.50;;;;;-1.48;72.91;101208.00;5069253;28;11631;-66
2022/12/13 03:56:22;;;;;;;;;32.00;25.00;;;;;-1.52;72.99;101191.53;5069329;28;11580;-67
2022/12/13 03:58:48;;;;;;;;;29.50;29.50;;;;;-1.52;72.86;101197.66;5069722;28;11585;-64
2022/12/13 04:01:16;;;;;;;;;27.75;26.50;;;;;-1.55;73.13;101197.84;5069806;28;12318;-64
2022/12/13 04:03:44;;;;;;;;;26.50;23.50;;;;;-1.57;72.57;101191.84;5069827;28;12375;-65
2022/12/13 04:06:11;;;;;;;;;35.25;29.25;;;;;-1.58;72.61;101191.94;5071529;28;11599;-66
2022/12/13 04:08:48;;;;;;;;;24.00;23.50;;;;;-1.57;72.46;101196.28;5073685;28;11577;-66
2022/12/13 04:14:08;;;;;;;;;24.00;24.00;;;;;-1.63;72.60;101189.63;5073137;28;11594;-65
2022/12/13 04:16:35;;;;;;;;;32.75;26.00;;;;;-1.63;72.79;101184.34;5073128;28;11581;-65
2022/12/13 04:19:02;;;;;;;;;23.75;23.00;;;;;-1.63;72.57;101189.63;5073678;28;11556;-66
2022/12/13 04:21:28;;;;;;;;;36.25;30.25;;;;;-1.62;72.73;101190.47;5072238;28;11556;-65
2022/12/13 04:23:54;;;;;;;;;30.75;28.25;;;;;-1.64;73.04;101190.59;5073201;28;11580;-66
2022/12/13 04:26:26;;;;;;;;;33.25;26.00;;;;;-1.66;72.73;101187.22;5073025;28;11559;-65
2022/12/13 04:28:52;;;;;;;;;26.50;24.00;;;;;-1.68;72.75;101186.47;5073230;28;11575;-65
2022/12/13 04:31:20;;;;;;;;;30.25;27.00;;;;;-1.69;72.66;101183.97;5072971;28;11670;-65
2022/12/13 04:33:47;;;;;;;;;24.75;24.75;;;;;-1.68;73.11;101186.47;5072852;28;11722;-66
2022/12/13 04:36:18;;;;;;;;;24.00;23.50;;;;;-1.68;72.99;101178.56;5072550;28;11519;-65
2022/12/13 04:38:59;;;;;;;;;35.50;32.00;;;;;-1.68;72.43;101177.72;5054961;28;11547;-65
2022/12/13 04:41:26;;;;;;;;;32.50;26.00;;;;;-1.69;72.99;101184.78;5072539;28;11554;-66
2022/12/13 04:44:01;;;;;;;;;27.25;24.00;;;;;-1.71;72.82;101186.69;5072894;28;11587;-67
2022/12/13 04:46:27;;;;;;;;;34.50;29.50;;;;;-1.73;72.48;101172.78;5072832;28;11560;-65
2022/12/13 04:48:54;;;;;;;;;25.50;25.50;;;;;-1.72;72.39;101182.38;5072796;28;11589;-66
2022/12/13 04:51:20;;;;;;;;;26.75;26.75;;;;;-1.75;72.43;101180.78;5073726;28;12283;-65
2022/12/13 04:53:47;;;;;;;;;25.50;24.50;;;;;-1.77;72.27;101173.94;5073550;28;11579;-66
2022/12/13 04:56:13;;;;;;;;;29.00;24.00;;;;;-1.79;72.58;101176.66;5072979;28;11579;-65
2022/12/13 04:58:39;;;;;;;;;31.50;30.50;;;;;-1.81;72.72;101170.66;5073377;28;11658;-66
2022/12/13 05:01:07;;;;;;;;;30.75;26.50;;;;;-1.79;72.60;101167.91;5072918;28;11576;-66
2022/12/13 05:03:34;;;;;;;;;26.75;23.75;;;;;-1.77;72.86;101171.28;5062156;28;11565;-66
2022/12/13 05:06:09;;;;;;;;;38.50;32.50;;;;;-1.80;72.60;101169.69;5073173;28;11579;-64
2022/12/13 05:08:53;;;;;;;;;27.50;24.00;;;;;-1.81;72.44;101162.75;5073185;28;11564;-66
2022/12/13 05:11:20;;;;;;;;;26.25;21.75;;;;;-1.85;72.99;101163.91;5073257;28;11579;-66
2022/12/13 05:13:48;;;;;;;;;38.50;31.00;;;;;-1.84;72.86;101170.88;5073473;28;11629;-66
2022/12/13 05:16:15;;;;;;;;;35.25;27.75;;;;;-1.86;72.31;101167.50;5072421;28;11628;-66
2022/12/13 05:18:41;;;;;;;;;19.50;17.75;;;;;-1.86;72.69;101169.31;5071490;28;11691;-66
2022/12/13 05:21:10;;;;;;;;;25.25;24.75;;;;;-1.84;72.31;101164.75;5072560;28;11566;-65
2022/12/13 05:23:37;;;;;;;;;35.25;26.00;;;;;-1.85;72.64;101166.53;5054454;28;11733;-66
2022/12/13 05:26:04;;;;;;;;;23.00;20.00;;;;;-1.88;72.33;101168.53;5072127;28;11600;-66
2022/12/13 05:28:30;;;;;;;;;31.50;28.00;;;;;-1.91;72.32;101160.84;5072366;28;11558;-67
2022/12/13 05:31:05;;;;;;;;;25.50;25.00;;;;;-1.93;72.89;101155.69;5072158;28;11575;-66
2022/12/13 05:33:49;;;;;;;;;29.75;25.00;;;;;-1.92;72.52;101156.53;5071560;28;11690;-66
2022/12/13 05:36:15;;;;;;;;;27.75;24.50;;;;;-1.92;72.01;101151.25;5071516;28;11600;-65
2022/12/13 05:38:42;;;;;;;;;28.00;26.33;;;;;-1.93;72.39;101150.41;5072345;28;11590;-65
2022/12/13 05:41:15;;;;;;;;;34.75;24.00;;;;;-1.92;72.77;101151.25;5072027;28;11588;-66
2022/12/13 05:43:42;;;;;;;;;37.33;27.00;;;;;-1.93;72.34;101150.41;5072125;28;11577;-66
2022/12/13 05:46:10;;;;;;;;;28.33;24.33;;;;;-1.93;71.94;101154.84;5071754;28;11624;-65
2022/12/13 05:48:38;;;;;;;;;41.75;32.00;;;;;-1.92;72.04;101138.06;5071993;28;11586;-67
2022/12/13 05:51:04;;;;;;;;;39.75;30.00;;;;;-1.93;72.01;101139.84;5070776;28;11622;-65
2022/12/13 05:53:37;;;;;;;;;32.25;27.00;;;;;-1.93;72.05;101137.22;5072019;28;11640;-64
2022/12/13 05:56:04;;;;;;;;;33.00;27.50;;;;;-1.91;71.89;101134.44;5071385;28;11594;-65
2022/12/13 05:58:30;;;;;;;;;25.25;20.00;;;;;-1.87;72.71;101144.69;5072260;28;11712;-65
2022/12/13 06:01:07;;;;;;;;;26.25;22.50;;;;;-1.83;72.07;101142.69;5074643;28;11678;-66
2022/12/13 06:03:33;;;;;;;;;29.50;24.75;;;;;-1.82;71.88;101139.94;5075162;28;12299;-66
2022/12/13 06:06:03;;;;;;;;;26.25;22.75;;;;;-1.79;71.92;101158.19;5072505;28;11583;-65
2022/12/13 06:08:30;;;;;;;;;25.00;18.75;;;;;-1.78;72.40;101159.06;5072483;28;11631;-65
2022/12/13 06:10:59;;;;;;;;;28.25;21.50;;;;;-1.80;72.46;101159.16;5072112;28;12393;-64
2022/12/13 06:13:39;;;;;;;;;28.50;27.00;;;;;-1.82;71.92;101162.84;5071674;28;11694;-64
2022/12/13 06:16:09;;;;;;;;;27.75;25.75;;;;;-1.86;72.15;101150.84;5070832;28;11689;-65
2022/12/13 06:18:49;;;;;;;;;25.00;20.00;;;;;-1.88;72.53;101148.28;5071315;28;11640;-67
2022/12/13 06:21:16;;;;;;;;;26.75;21.50;;;;;-1.91;72.41;101153.75;5073101;28;11686;-66
2022/12/13 06:23:43;;;;;;;;;26.50;22.00;;;;;-1.92;71.98;101162.63;5071075;28;11572;-67
2022/12/13 06:26:09;;;;;;;;;24.25;22.25;;;;;-1.95;71.80;101151.44;5070662;28;11580;-66
2022/12/13 06:28:36;;;;;;;;;25.50;23.00;;;;;-1.92;72.24;101156.53;5069934;28;11556;-66
2022/12/13 06:31:03;;;;;;;;;23.25;20.50;;;;;-1.93;71.78;101154.84;5068577;28;11524;-66
2022/12/13 06:33:34;;;;;;;;;23.75;20.00;;;;;-1.91;72.33;101158.19;5061029;28;11587;-68
2022/12/13 06:36:01;;;;;;;;;33.00;27.33;;;;;-1.92;71.93;101152.09;5062572;28;11568;-67
2022/12/13 06:38:28;;;;;;;;;24.75;21.25;;;;;-1.90;72.04;101157.28;5069521;28;11594;-65
2022/12/13 06:41:12;;;;;;;;;16.75;14.25;;;;;-1.85;72.52;101150.72;5070119;28;11681;-65
2022/12/13 06:43:43;;;;;;;;;35.75;30.25;;;;;-1.83;71.95;101155.88;5049087;28;11560;-68
2022/12/13 06:46:09;;;;;;;;;25.00;24.33;;;;;-1.84;72.45;101149.75;5066157;28;11600;-66
2022/12/13 06:48:36;;;;;;;;;23.00;20.50;;;;;-1.83;72.05;101154.06;5066809;28;11680;-67
2022/12/13 06:51:04;;;;;;;;;28.25;24.25;;;;;-1.83;72.45;101155.88;5070261;28;11638;-66
2022/12/13 06:53:30;;;;;;;;;28.00;27.00;;;;;-1.84;72.24;101159.47;5065770;28;11564;-66
2022/12/13 06:56:11;;;;;;;;;21.25;21.25;;;;;-1.84;71.95;101156.81;5063481;28;11609;-67
2022/12/13 06:58:40;;;;;;;;;23.00;16.50;;;;;-1.85;72.04;101153.34;5072873;28;11656;-67
2022/12/13 07:01:12;;;;;;;;;26.00;21.75;;;;;-1.84;72.04;101155.03;5058402;28;11626;-67
2022/12/13 07:03:50;;;;;;;;;25.00;23.75;;;;;-1.83;72.28;101161.16;5056278;28;11630;-67
2022/12/13 07:06:21;;;;;;;;;28.00;27.50;;;;;-1.84;72.58;101155.03;5061741;28;11555;-66
2022/12/13 07:08:53;;;;;;;;;29.25;24.50;;;;;-1.82;71.96;101161.06;5068740;28;11600;-66
2022/12/13 07:11:26;;;;;;;;;25.00;22.75;;;;;-1.81;71.92;101157.47;5061658;28;11652;-66
2022/12/13 07:13:53;;;;;;;;;27.25;17.50;;;;;-1.79;72.38;101160.81;5062223;28;11641;-66
2022/12/13 07:16:21;;;;;;;;;27.25;22.75;;;;;-1.76;72.40;101163.25;5061667;28;11585;-66
2022/12/13 07:19:01;;;;;;;;;27.50;25.00;;;;;-1.76;72.84;101168.53;5060998;28;11617;-65
2022/12/13 07:21:29;;;;;;;;;21.75;21.25;;;;;-1.75;72.34;101167.56;5068236;28;11551;-67
2022/12/13 07:23:56;;;;;;;;;25.25;22.00;;;;;-1.75;72.35;101164.09;5064957;28;11567;-68
2022/12/13 07:26:23;;;;;;;;;32.75;25.00;;;;;-1.74;72.31;101165.81;5066843;28;11575;-67
2022/12/13 07:28:50;;;;;;;;;28.50;24.50;;;;;-1.76;72.18;101162.41;5069520;28;11582;-67
2022/12/13 07:31:22;;;;;;;;;27.25;22.25;;;;;-1.75;72.93;101161.47;5067506;28;11756;-67
2022/12/13 07:33:49;;;;;;;;;30.25;25.75;;;;;-1.75;72.23;101172.00;5069744;28;11664;-67
2022/12/13 07:36:19;;;;;;;;;33.25;24.75;;;;;-1.76;72.15;101173.81;5067745;28;11625;-67
2022/12/13 07:38:56;;;;;;;;;32.50;26.00;;;;;-1.77;73.08;101173.94;5068743;28;11584;-66
2022/12/13 07:41:24;;;;;;;;;31.00;26.75;;;;;-1.77;73.08;101179.22;5068729;28;12330;-66
2022/12/13 07:43:54;;;;;;;;;28.50;23.75;;;;;-1.76;73.02;101187.00;5045250;28;11623;-67
2022/12/13 07:46:22;;;;;;;;;22.50;21.00;;;;;-1.77;72.65;101184.50;5061681;28;11599;-66
2022/12/13 07:49:01;;;;;;;;;28.50;24.25;;;;;-1.78;73.10;101178.38;5059235;28;11569;-66
2022/12/13 07:51:28;;;;;;;;;28.25;22.75;;;;;-1.79;72.97;101178.47;5064064;28;11564;-66
2022/12/13 07:53:54;;;;;;;;;32.00;30.50;;;;;-1.78;72.95;101180.16;5068348;28;11559;-67
2022/12/13 07:56:20;;;;;;;;;28.00;27.00;;;;;-1.78;72.95;101186.28;5062851;28;11728;-67
2022/12/13 07:58:47;;;;;;;;;32.50;25.50;;;;;-1.77;72.56;101187.97;5067111;28;11609;-67
2022/12/13 08:01:13;;;;;;;;;24.75;24.00;;;;;-1.76;72.83;101187.00;5066893;28;11571;-66
2022/12/13 08:03:40;;;;;;;;;30.50;23.00;;;;;-1.72;73.18;101189.44;5066278;28;11681;-66
2022/12/13 08:06:10;;;;;;;;;27.50;22.50;;;;;-1.69;72.84;101190.06;5069994;28;11596;-65
2022/12/13 08:08:37;;;;;;;;;28.00;23.00;;;;;-1.67;72.58;101198.72;5063199;28;11660;-65
2022/12/13 08:11:06;;;;;;;;;33.75;27.25;;;;;-1.62;72.42;101193.13;5061889;28;11599;-66
2022/12/13 08:13:34;;;;;;;;;33.75;21.50;;;;;-1.61;72.81;101200.09;5065552;28;11606;-66
2022/12/13 08:16:06;;;;;;;;;26.75;18.75;;;;;-1.61;72.95;101197.47;5055075;28;11623;-66
2022/12/13 08:18:53;;;;;;;;;30.50;27.50;;;;;-1.59;72.23;101195.53;5064433;28;11587;-66
2022/12/13 08:21:36;;;;;;;;;26.50;25.00;;;;;-1.60;72.91;101194.69;5067392;28;11590;-67
2022/12/13 08:24:25;;;;;;;;;31.00;26.50;;;;;-1.60;72.86;101197.34;5066529;28;11568;-66
2022/12/13 08:26:53;;;;;;;;;31.50;21.50;;;;;-1.59;72.34;101191.09;5061270;28;11575;-67
2022/12/13 08:29:19;;;;;;;;;26.00;25.75;;;;;-1.54;72.80;101194.28;5065021;28;12441;-68
2022/12/13 08:31:59;;;;;;;;;20.75;19.50;;;;;-1.50;73.03;101184.34;5067559;28;11717;-65
2022/12/13 08:34:26;;;;;;;;;30.00;26.50;;;;;-1.45;73.25;101186.69;5066920;28;11587;-66
2022/12/13 08:36:53;;;;;;;;;28.25;25.25;;;;;-1.42;73.17;101199.63;5064546;28;11602;-67
2022/12/13 08:39:29;;;;;;;;;30.25;26.00;;;;;-1.38;72.87;101194.03;5063317;28;11573;-67
2022/12/13 08:42:00;;;;;;;;;29.00;27.00;;;;;-1.35;72.24;101200.91;5058362;28;11598;-66
2022/12/13 08:44:48;;;;;;;;;33.25;26.50;;;;;-1.34;72.79;101200.78;5061346;28;11596;-65
2022/12/13 08:47:15;;;;;;;;;38.25;32.50;;;;;-1.32;72.62;101204.16;5067126;28;11571;-65
2022/12/13 08:49:54;;;;;;;;;28.00;25.50;;;;;-1.30;73.00;101206.69;5060707;28;11586;-66
2022/12/13 08:52:28;;;;;;;;;28.75;28.00;;;;;-1.26;72.47;101203.75;5073240;28;11564;-64
2022/12/13 08:54:55;;;;;;;;;33.00;28.00;;;;;-1.18;72.97;101205.81;5071874;28;11592;-65
2022/12/13 08:57:21;;;;;;;;;27.50;23.75;;;;;-1.15;72.69;101205.59;5073010;28;11574;-65
2022/12/13 08:59:48;;;;;;;;;34.25;27.75;;;;;-1.11;72.79;101204.44;5073630;28;11570;-65
2022/12/13 09:02:15;;;;;;;;;21.25;20.00;;;;;-1.11;72.36;101206.22;5074387;28;11717;-65
2022/12/13 09:04:42;;;;;;;;;33.25;26.75;;;;;-1.11;73.05;101206.22;5072789;28;12417;-66
2022/12/13 09:07:09;;;;;;;;;32.50;27.75;;;;;-1.10;72.86;101205.28;5054873;28;11610;-65
2022/12/13 09:09:35;;;;;;;;;42.50;39.25;;;;;-1.10;72.96;101198.19;5072542;28;12325;-65
2022/12/13 09:12:03;;;;;;;;;50.00;43.00;;;;;-1.04;72.92;101202.22;5072131;28;11581;-66
2022/12/13 09:14:37;;;;;;;;;38.50;36.50;;;;;-0.97;73.22;101202.59;5052835;28;11614;-66
2022/12/13 09:17:11;;;;;;;;;41.00;31.00;;;;;-0.94;72.81;101200.56;5070261;28;11593;-65
2022/12/13 09:19:50;;;;;;;;;42.75;38.25;;;;;-0.90;72.76;101198.56;5072739;28;11569;-64
2022/12/13 09:22:24;;;;;;;;;31.75;30.75;;;;;-0.86;72.95;101202.66;5073418;28;11596;-66
2022/12/13 09:25:00;;;;;;;;;29.00;24.50;;;;;-0.81;72.86;101204.03;5072647;28;12325;-66
2022/12/13 09:27:30;;;;;;;;;35.25;29.50;;;;;-0.77;72.84;101194.91;5072364;28;12278;-66
2022/12/13 09:30:06;;;;;;;;;33.00;29.50;;;;;-0.71;73.54;101196.25;5073036;28;11567;-67
2022/12/13 09:32:33;;;;;;;;;39.00;33.25;;;;;-0.66;73.19;101190.63;5092427;28;11696;-67
2022/12/13 09:34:59;;;;;;;;;29.75;29.00;;;;;-0.65;73.08;101190.53;5086053;28;11706;-67
2022/12/13 09:37:26;;;;;;;;;44.00;37.00;;;;;-0.63;72.55;101183.31;5054064;28;11577;-67
2022/12/13 09:39:52;;;;;;;;;30.25;27.00;;;;;-0.58;72.38;101180.31;5071634;28;11552;-67
2022/12/13 09:42:24;;;;;;;;;36.25;30.50;;;;;-0.56;72.50;101184.56;5071849;28;11700;-67
2022/12/13 09:45:03;;;;;;;;;31.75;29.00;;;;;-0.52;72.82;101183.38;5071760;28;11583;-66
2022/12/13 09:47:36;;;;;;;;;28.00;27.75;;;;;-0.51;73.00;101185.06;5071738;28;11558;-67
2022/12/13 09:50:11;;;;;;;;;31.25;26.25;;;;;-0.45;73.04;101185.53;5071570;28;12322;-68
2022/12/13 09:52:42;;;;;;;;;37.75;32.00;;;;;-0.45;72.56;101182.91;5072035;28;11698;-68
2022/12/13 09:55:22;;;;;;;;;35.75;30.25;;;;;-0.40;72.95;101181.63;5071378;28;11567;-68
2022/12/13 09:57:50;;;;;;;;;36.50;35.00;;;;;-0.25;73.63;101176.94;5071855;28;11566;-67
2022/12/13 10:00:20;;;;;;;;;32.75;30.00;;;;;-0.08;76.27;101179.19;5071765;28;11610;-67
2022/12/13 10:02:50;;;;;;;;;26.50;23.00;;;;;0.13;74.62;101174.03;5053623;28;11629;-67
2022/12/13 10:05:30;;;;;;;;;36.00;28.50;;;;;0.16;73.02;101178.22;5070896;28;11690;-66
2022/12/13 10:08:26;;;;;;;;;33.50;30.00;;;;;0.14;72.97;101169.56;5071494;28;11731;-67
2022/12/13 10:10:52;;;;;;;;;34.25;32.25;;;;;0.13;72.42;101173.19;5071717;28;11560;-68
2022/12/13 10:13:24;;;;;;;;;39.50;28.00;;;;;0.14;72.45;101178.34;5071464;28;11583;-67
2022/12/13 10:15:57;;;;;;;;;46.25;33.75;;;;;0.15;71.96;101179.19;5070783;28;11723;-67
2022/12/13 10:18:32;;;;;;;;;29.00;29.00;;;;;0.14;71.65;101174.88;5070854;28;11635;-67
2022/12/13 10:21:03;;;;;;;;;32.50;29.00;;;;;0.16;72.11;101180.88;5071180;28;11554;-67
2022/12/13 10:23:30;;;;;;;;;31.75;27.50;;;;;0.16;72.02;101170.28;5071231;28;11578;-67
2022/12/13 10:26:16;;;;;;;;;33.50;32.00;;;;;0.16;71.91;101173.81;5070655;28;11540;-66
2022/12/13 10:29:01;;;;;;;;;40.50;33.50;;;;;0.15;71.87;101176.56;5071343;28;11687;-68
2022/12/13 10:31:28;;;;;;;;;41.50;37.50;;;;;0.12;71.26;101166.19;5070426;28;11675;-68
2022/12/13 10:33:56;;;;;;;;;34.25;32.00;;;;;0.09;71.44;101171.75;5070495;28;11735;-67
2022/12/13 10:36:34;;;;;;;;;45.00;35.00;;;;;0.11;71.99;101167.16;5070461;28;11682;-66
2022/12/13 10:39:02;;;;;;;;;44.25;38.50;;;;;0.11;71.41;101172.44;5070878;28;11685;-66
2022/12/13 10:41:34;;;;;;;;;39.25;30.25;;;;;0.11;71.61;101161.88;5070667;28;11584;-67
2022/12/13 10:44:23;;;;;;;;;40.75;36.25;;;;;0.09;71.36;101153.22;5052800;28;11644;-67
2022/12/13 10:46:58;;;;;;;;;39.50;33.75;;;;;0.09;70.98;101161.16;5070060;28;11566;-67
2022/12/13 10:49:37;;;;;;;;;34.50;31.00;;;;;0.10;71.30;101152.25;5069891;28;11748;-65
2022/12/13 10:52:04;;;;;;;;;33.00;32.50;;;;;0.10;70.90;101145.16;5050875;28;11751;-67
2022/12/13 10:54:35;;;;;;;;;36.75;33.75;;;;;0.09;71.15;101147.94;5052065;28;11658;-67
2022/12/13 10:57:09;;;;;;;;;33.00;30.00;;;;;0.05;71.13;101147.31;5056523;28;11582;-66
2022/12/13 10:59:37;;;;;;;;;47.50;42.75;;;;;0.00;70.83;101144.19;5070524;28;11568;-66
2022/12/13 11:02:34;;;;;;;;;36.50;31.25;;;;;-0.01;71.22;101142.47;5070360;28;11625;-66
2022/12/13 11:05:26;;;;;;;;;32.00;30.00;;;;;-0.02;71.13;101144.28;5070293;28;11580;-67
2022/12/13 11:07:56;;;;;;;;;60.50;43.25;;;;;-0.03;70.83;101137.31;5070387;28;11577;-67
2022/12/13 11:10:28;;;;;;;;;37.50;30.75;;;;;0.00;70.96;101144.19;5070461;28;11608;-66
2022/12/13 11:13:01;;;;;;;;;34.75;29.75;;;;;0.02;71.34;101142.25;5070107;28;11584;-68
2022/12/13 11:15:29;;;;;;;;;44.00;36.25;;;;;0.03;71.49;101143.94;5069120;28;11582;-66
2022/12/13 11:18:20;;;;;;;;;42.50;37.50;;;;;0.08;71.29;101146.22;5070110;28;11640;-66
2022/12/13 11:20:57;;;;;;;;;41.25;36.25;;;;;0.10;70.93;101142.50;5057422;28;11684;-66
2022/12/13 11:23:41;;;;;;;;;40.00;36.00;;;;;0.05;71.12;101143.84;5070022;28;11652;-65
2022/12/13 11:26:17;;;;;;;;;40.00;36.00;;;;;0.03;71.09;101143.09;5069860;28;11642;-66
2022/12/13 11:29:17;;;;;;;;;51.75;43.75;;;;;-0.04;71.20;101140.94;5070306;28;11595;-66
2022/12/13 11:32:09;;;;;;;;;43.75;37.00;;;;;-0.05;71.72;101136.59;5069775;28;12300;-66
2022/12/13 11:34:44;;;;;;;;;49.25;43.25;;;;;-0.05;71.51;101119.88;5069546;28;11588;-67